sensor_id;sensor_type;location;lat;lon;timestamp;P1;durP1;ratioP1;P2;durP2;ratioP2
22849;SDS011;11591;44.792;10.358;2023-03-14T00:01:09;20.20;;;10.00;;
22849;SDS011;11591;44.792;10.358;2023-03-14T00:03:36;20.90;;;10.07;;
22849;SDS011;11591;44.792;10.358;2023-03-14T00:06:03;21.58;;;9.63;;
22849;SDS011;11591;44.792;10.358;2023-03-14T00:08:29;21.52;;;9.45;;
22849;SDS011;11591;44.792;10.358;2023-03-14T00:10:55;17.80;;;9.93;;
22849;SDS011;11591;44.792;10.358;2023-03-14T00:13:22;19.10;;;9.63;;
22849;SDS011;11591;44.792;10.358;2023-03-14T00:15:48;23.73;;;11.40;;
22849;SDS011;11591;44.792;10.358;2023-03-14T00:18:14;22.55;;;9.98;;
22849;SDS011;11591;44.792;10.358;2023-03-14T00:20:40;20.73;;;10.55;;
22849;SDS011;11591;44.792;10.358;2023-03-14T00:23:06;19.30;;;9.32;;
22849;SDS011;11591;44.792;10.358;2023-03-14T00:25:32;30.80;;;14.88;;
22849;SDS011;11591;44.792;10.358;2023-03-14T00:27:58;25.02;;;13.52;;
22849;SDS011;11591;44.792;10.358;2023-03-14T00:30:23;29.73;;;17.42;;
22849;SDS011;11591;44.792;10.358;2023-03-14T00:32:49;32.03;;;17.35;;
22849;SDS011;11591;44.792;10.358;2023-03-14T00:35:15;30.05;;;13.90;;
22849;SDS011;11591;44.792;10.358;2023-03-14T00:37:41;22.75;;;11.35;;
22849;SDS011;11591;44.792;10.358;2023-03-14T00:40:07;23.45;;;10.40;;
22849;SDS011;11591;44.792;10.358;2023-03-14T00:42:34;25.05;;;11.70;;
22849;SDS011;11591;44.792;10.358;2023-03-14T00:45:00;21.90;;;11.63;;
22849;SDS011;11591;44.792;10.358;2023-03-14T00:47:25;28.95;;;13.00;;
22849;SDS011;11591;44.792;10.358;2023-03-14T00:49:51;24.70;;;12.43;;
22849;SDS011;11591;44.792;10.358;2023-03-14T00:52:18;21.67;;;12.48;;
22849;SDS011;11591;44.792;10.358;2023-03-14T00:54:43;26.10;;;13.13;;
22849;SDS011;11591;44.792;10.358;2023-03-14T00:57:09;24.77;;;12.18;;
22849;SDS011;11591;44.792;10.358;2023-03-14T00:59:35;28.08;;;13.10;;
22849;SDS011;11591;44.792;10.358;2023-03-14T01:02:01;27.98;;;12.00;;
22849;SDS011;11591;44.792;10.358;2023-03-14T01:04:27;23.30;;;12.45;;
22849;SDS011;11591;44.792;10.358;2023-03-14T01:06:54;30.33;;;12.15;;
22849;SDS011;11591;44.792;10.358;2023-03-14T01:09:19;33.70;;;13.15;;
22849;SDS011;11591;44.792;10.358;2023-03-14T01:11:46;26.65;;;12.48;;
22849;SDS011;11591;44.792;10.358;2023-03-14T01:14:13;26.85;;;12.07;;
22849;SDS011;11591;44.792;10.358;2023-03-14T01:16:40;26.65;;;13.18;;
22849;SDS011;11591;44.792;10.358;2023-03-14T01:19:06;29.58;;;13.52;;
22849;SDS011;11591;44.792;10.358;2023-03-14T01:21:32;24.40;;;12.82;;
22849;SDS011;11591;44.792;10.358;2023-03-14T01:24:00;28.58;;;13.57;;
22849;SDS011;11591;44.792;10.358;2023-03-14T01:26:29;27.83;;;12.57;;
22849;SDS011;11591;44.792;10.358;2023-03-14T01:28:57;30.90;;;12.30;;
22849;SDS011;11591;44.792;10.358;2023-03-14T01:31:23;33.50;;;12.98;;
22849;SDS011;11591;44.792;10.358;2023-03-14T01:33:50;24.05;;;12.55;;
22849;SDS011;11591;44.792;10.358;2023-03-14T01:36:16;29.35;;;12.30;;
22849;SDS011;11591;44.792;10.358;2023-03-14T01:38:42;23.40;;;12.45;;
22849;SDS011;11591;44.792;10.358;2023-03-14T01:41:29;24.98;;;11.82;;
22849;SDS011;11591;44.792;10.358;2023-03-14T01:43:57;28.08;;;12.40;;
22849;SDS011;11591;44.792;10.358;2023-03-14T01:46:24;28.00;;;12.65;;
22849;SDS011;11591;44.792;10.358;2023-03-14T01:49:01;21.67;;;11.27;;
22849;SDS011;11591;44.792;10.358;2023-03-14T01:57:28;20.55;;;10.77;;
22849;SDS011;11591;44.792;10.358;2023-03-14T02:00:15;22.08;;;10.48;;
22849;SDS011;11591;44.792;10.358;2023-03-14T02:02:46;21.02;;;10.77;;
22849;SDS011;11591;44.792;10.358;2023-03-14T02:05:18;20.75;;;10.48;;
22849;SDS011;11591;44.792;10.358;2023-03-14T02:08:09;17.65;;;9.52;;
22849;SDS011;11591;44.792;10.358;2023-03-14T02:10:48;25.17;;;10.70;;
22849;SDS011;11591;44.792;10.358;2023-03-14T02:13:19;17.77;;;10.50;;
22849;SDS011;11591;44.792;10.358;2023-03-14T02:16:15;17.02;;;9.90;;
22849;SDS011;11591;44.792;10.358;2023-03-14T02:19:20;19.80;;;10.55;;
22849;SDS011;11591;44.792;10.358;2023-03-14T02:22:09;17.77;;;9.90;;
22849;SDS011;11591;44.792;10.358;2023-03-14T02:27:41;19.58;;;10.65;;
22849;SDS011;11591;44.792;10.358;2023-03-14T02:30:13;19.35;;;11.02;;
22849;SDS011;11591;44.792;10.358;2023-03-14T02:32:46;22.77;;;13.35;;
22849;SDS011;11591;44.792;10.358;2023-03-14T02:35:16;23.30;;;12.95;;
22849;SDS011;11591;44.792;10.358;2023-03-14T02:37:53;28.27;;;14.52;;
22849;SDS011;11591;44.792;10.358;2023-03-14T02:40:27;22.48;;;12.25;;
22849;SDS011;11591;44.792;10.358;2023-03-14T02:42:53;21.88;;;12.93;;
22849;SDS011;11591;44.792;10.358;2023-03-14T02:47:52;29.17;;;14.43;;
22849;SDS011;11591;44.792;10.358;2023-03-14T02:50:24;28.02;;;14.95;;
22849;SDS011;11591;44.792;10.358;2023-03-14T02:52:55;27.80;;;14.55;;
22849;SDS011;11591;44.792;10.358;2023-03-14T02:55:22;26.83;;;15.50;;
22849;SDS011;11591;44.792;10.358;2023-03-14T02:57:51;24.83;;;14.55;;
22849;SDS011;11591;44.792;10.358;2023-03-14T03:00:17;29.65;;;15.90;;
22849;SDS011;11591;44.792;10.358;2023-03-14T03:02:44;30.60;;;15.95;;
22849;SDS011;11591;44.792;10.358;2023-03-14T03:05:10;30.70;;;15.27;;
22849;SDS011;11591;44.792;10.358;2023-03-14T03:07:36;29.10;;;16.10;;
22849;SDS011;11591;44.792;10.358;2023-03-14T03:10:03;34.55;;;16.48;;
22849;SDS011;11591;44.792;10.358;2023-03-14T03:12:30;29.73;;;16.88;;
22849;SDS011;11591;44.792;10.358;2023-03-14T03:14:56;30.75;;;17.02;;
22849;SDS011;11591;44.792;10.358;2023-03-14T03:17:21;31.73;;;17.27;;
22849;SDS011;11591;44.792;10.358;2023-03-14T03:19:47;33.05;;;17.63;;
22849;SDS011;11591;44.792;10.358;2023-03-14T03:22:13;29.05;;;17.35;;
22849;SDS011;11591;44.792;10.358;2023-03-14T03:24:39;30.20;;;17.83;;
22849;SDS011;11591;44.792;10.358;2023-03-14T03:27:05;32.22;;;17.63;;
22849;SDS011;11591;44.792;10.358;2023-03-14T03:29:31;32.15;;;18.85;;
22849;SDS011;11591;44.792;10.358;2023-03-14T03:31:57;34.80;;;18.48;;
22849;SDS011;11591;44.792;10.358;2023-03-14T03:34:23;31.27;;;18.30;;
22849;SDS011;11591;44.792;10.358;2023-03-14T03:36:51;36.22;;;18.15;;
22849;SDS011;11591;44.792;10.358;2023-03-14T03:39:17;31.65;;;17.95;;
22849;SDS011;11591;44.792;10.358;2023-03-14T03:41:46;39.45;;;20.10;;
22849;SDS011;11591;44.792;10.358;2023-03-14T03:44:12;36.28;;;18.77;;
22849;SDS011;11591;44.792;10.358;2023-03-14T03:46:39;30.85;;;18.25;;
22849;SDS011;11591;44.792;10.358;2023-03-14T03:49:06;36.72;;;18.95;;
22849;SDS011;11591;44.792;10.358;2023-03-14T03:51:33;35.65;;;18.70;;
22849;SDS011;11591;44.792;10.358;2023-03-14T03:53:59;38.03;;;21.13;;
22849;SDS011;11591;44.792;10.358;2023-03-14T03:56:32;32.25;;;18.45;;
22849;SDS011;11591;44.792;10.358;2023-03-14T03:58:58;36.55;;;19.95;;
22849;SDS011;11591;44.792;10.358;2023-03-14T04:01:24;39.53;;;21.08;;
22849;SDS011;11591;44.792;10.358;2023-03-14T04:03:53;36.63;;;20.38;;
22849;SDS011;11591;44.792;10.358;2023-03-14T04:06:19;36.78;;;20.25;;
22849;SDS011;11591;44.792;10.358;2023-03-14T04:08:47;40.90;;;20.80;;
22849;SDS011;11591;44.792;10.358;2023-03-14T04:11:33;35.33;;;19.25;;
22849;SDS011;11591;44.792;10.358;2023-03-14T04:14:20;38.45;;;19.60;;
22849;SDS011;11591;44.792;10.358;2023-03-14T04:16:48;35.67;;;19.42;;
22849;SDS011;11591;44.792;10.358;2023-03-14T04:19:17;45.78;;;19.55;;
22849;SDS011;11591;44.792;10.358;2023-03-14T04:21:44;36.33;;;19.10;;
22849;SDS011;11591;44.792;10.358;2023-03-14T04:24:12;39.13;;;18.73;;
22849;SDS011;11591;44.792;10.358;2023-03-14T04:26:40;39.33;;;19.10;;
22849;SDS011;11591;44.792;10.358;2023-03-14T04:29:08;35.17;;;19.40;;
22849;SDS011;11591;44.792;10.358;2023-03-14T04:31:34;38.25;;;19.77;;
22849;SDS011;11591;44.792;10.358;2023-03-14T04:34:00;38.55;;;18.65;;
22849;SDS011;11591;44.792;10.358;2023-03-14T04:36:33;42.60;;;18.83;;
22849;SDS011;11591;44.792;10.358;2023-03-14T04:39:03;37.53;;;19.05;;
22849;SDS011;11591;44.792;10.358;2023-03-14T04:41:30;34.05;;;18.20;;
22849;SDS011;11591;44.792;10.358;2023-03-14T04:43:56;37.17;;;19.15;;
22849;SDS011;11591;44.792;10.358;2023-03-14T04:46:22;35.88;;;19.33;;
22849;SDS011;11591;44.792;10.358;2023-03-14T04:48:49;38.20;;;19.02;;
22849;SDS011;11591;44.792;10.358;2023-03-14T04:51:16;37.55;;;19.45;;
22849;SDS011;11591;44.792;10.358;2023-03-14T04:53:42;36.70;;;19.77;;
22849;SDS011;11591;44.792;10.358;2023-03-14T04:56:10;43.25;;;19.52;;
22849;SDS011;11591;44.792;10.358;2023-03-14T04:58:39;44.20;;;19.77;;
22849;SDS011;11591;44.792;10.358;2023-03-14T05:01:05;42.97;;;20.27;;
22849;SDS011;11591;44.792;10.358;2023-03-14T05:03:49;39.72;;;19.15;;
22849;SDS011;11591;44.792;10.358;2023-03-14T05:06:27;36.22;;;20.25;;
22849;SDS011;11591;44.792;10.358;2023-03-14T05:09:20;44.85;;;21.13;;
22849;SDS011;11591;44.792;10.358;2023-03-14T05:11:49;42.17;;;21.92;;
22849;SDS011;11591;44.792;10.358;2023-03-14T05:14:35;43.45;;;21.35;;
22849;SDS011;11591;44.792;10.358;2023-03-14T05:17:32;47.70;;;23.58;;
22849;SDS011;11591;44.792;10.358;2023-03-14T05:20:22;51.17;;;24.33;;
22849;SDS011;11591;44.792;10.358;2023-03-14T05:23:08;50.17;;;24.73;;
22849;SDS011;11591;44.792;10.358;2023-03-14T05:25:53;53.03;;;25.45;;
22849;SDS011;11591;44.792;10.358;2023-03-14T05:28:48;53.97;;;26.27;;
22849;SDS011;11591;44.792;10.358;2023-03-14T05:31:40;47.35;;;25.05;;
22849;SDS011;11591;44.792;10.358;2023-03-14T05:34:24;57.72;;;26.83;;
22849;SDS011;11591;44.792;10.358;2023-03-14T05:37:11;58.78;;;26.98;;
22849;SDS011;11591;44.792;10.358;2023-03-14T05:39:57;49.45;;;27.52;;
22849;SDS011;11591;44.792;10.358;2023-03-14T05:42:49;51.08;;;26.08;;
22849;SDS011;11591;44.792;10.358;2023-03-14T05:45:29;53.60;;;26.65;;
22849;SDS011;11591;44.792;10.358;2023-03-14T05:47:54;55.45;;;27.98;;
22849;SDS011;11591;44.792;10.358;2023-03-14T05:50:39;58.17;;;28.35;;
22849;SDS011;11591;44.792;10.358;2023-03-14T05:53:27;62.50;;;29.15;;
22849;SDS011;11591;44.792;10.358;2023-03-14T05:56:12;60.72;;;30.15;;
22849;SDS011;11591;44.792;10.358;2023-03-14T05:58:54;61.03;;;28.98;;
22849;SDS011;11591;44.792;10.358;2023-03-14T06:01:37;62.15;;;28.90;;
22849;SDS011;11591;44.792;10.358;2023-03-14T06:04:11;62.53;;;28.45;;
22849;SDS011;11591;44.792;10.358;2023-03-14T06:06:39;61.13;;;28.13;;
22849;SDS011;11591;44.792;10.358;2023-03-14T06:09:06;54.33;;;27.92;;
22849;SDS011;11591;44.792;10.358;2023-03-14T06:11:35;57.20;;;27.70;;
22849;SDS011;11591;44.792;10.358;2023-03-14T06:14:02;54.33;;;26.65;;
22849;SDS011;11591;44.792;10.358;2023-03-14T06:16:28;55.75;;;27.17;;
22849;SDS011;11591;44.792;10.358;2023-03-14T06:18:54;52.35;;;26.30;;
22849;SDS011;11591;44.792;10.358;2023-03-14T06:21:22;59.70;;;27.85;;
22849;SDS011;11591;44.792;10.358;2023-03-14T06:23:48;54.63;;;27.55;;
22849;SDS011;11591;44.792;10.358;2023-03-14T06:26:15;54.70;;;28.73;;
22849;SDS011;11591;44.792;10.358;2023-03-14T06:28:42;60.10;;;28.73;;
22849;SDS011;11591;44.792;10.358;2023-03-14T06:31:08;56.00;;;25.50;;
22849;SDS011;11591;44.792;10.358;2023-03-14T06:33:42;54.53;;;28.10;;
22849;SDS011;11591;44.792;10.358;2023-03-14T06:36:09;61.30;;;29.35;;
22849;SDS011;11591;44.792;10.358;2023-03-14T06:38:37;54.13;;;28.05;;
22849;SDS011;11591;44.792;10.358;2023-03-14T06:41:04;47.85;;;26.85;;
22849;SDS011;11591;44.792;10.358;2023-03-14T06:43:36;55.20;;;28.00;;
22849;SDS011;11591;44.792;10.358;2023-03-14T06:46:03;59.00;;;26.55;;
22849;SDS011;11591;44.792;10.358;2023-03-14T06:48:31;54.10;;;28.35;;
22849;SDS011;11591;44.792;10.358;2023-03-14T06:50:57;50.28;;;27.17;;
22849;SDS011;11591;44.792;10.358;2023-03-14T06:53:23;50.47;;;26.80;;
22849;SDS011;11591;44.792;10.358;2023-03-14T06:55:49;50.13;;;24.98;;
22849;SDS011;11591;44.792;10.358;2023-03-14T06:58:17;48.35;;;24.85;;
22849;SDS011;11591;44.792;10.358;2023-03-14T07:00:44;41.58;;;23.67;;
22849;SDS011;11591;44.792;10.358;2023-03-14T07:03:13;48.03;;;23.63;;
22849;SDS011;11591;44.792;10.358;2023-03-14T07:05:42;41.88;;;23.08;;
22849;SDS011;11591;44.792;10.358;2023-03-14T07:08:08;46.50;;;22.75;;
22849;SDS011;11591;44.792;10.358;2023-03-14T07:10:34;48.47;;;25.70;;
22849;SDS011;11591;44.792;10.358;2023-03-14T07:13:00;49.88;;;26.08;;
22849;SDS011;11591;44.792;10.358;2023-03-14T07:15:29;43.88;;;23.45;;
22849;SDS011;11591;44.792;10.358;2023-03-14T07:18:00;47.40;;;25.58;;
22849;SDS011;11591;44.792;10.358;2023-03-14T07:20:28;51.17;;;24.67;;
22849;SDS011;11591;44.792;10.358;2023-03-14T07:22:55;55.95;;;27.75;;
22849;SDS011;11591;44.792;10.358;2023-03-14T07:25:33;45.53;;;25.77;;
22849;SDS011;11591;44.792;10.358;2023-03-14T07:27:59;51.08;;;25.13;;
22849;SDS011;11591;44.792;10.358;2023-03-14T07:30:25;44.25;;;24.75;;
22849;SDS011;11591;44.792;10.358;2023-03-14T07:32:51;51.78;;;25.05;;
22849;SDS011;11591;44.792;10.358;2023-03-14T07:35:17;49.00;;;24.73;;
22849;SDS011;11591;44.792;10.358;2023-03-14T07:37:43;45.97;;;24.90;;
22849;SDS011;11591;44.792;10.358;2023-03-14T07:40:10;54.67;;;24.83;;
22849;SDS011;11591;44.792;10.358;2023-03-14T07:42:40;46.05;;;26.13;;
22849;SDS011;11591;44.792;10.358;2023-03-14T07:45:13;46.13;;;23.63;;
22849;SDS011;11591;44.792;10.358;2023-03-14T07:47:39;47.88;;;26.52;;
22849;SDS011;11591;44.792;10.358;2023-03-14T07:50:05;47.92;;;24.25;;
22849;SDS011;11591;44.792;10.358;2023-03-14T07:52:31;45.63;;;24.70;;
22849;SDS011;11591;44.792;10.358;2023-03-14T07:54:57;45.08;;;25.27;;
22849;SDS011;11591;44.792;10.358;2023-03-14T07:57:23;47.30;;;24.60;;
22849;SDS011;11591;44.792;10.358;2023-03-14T07:59:49;46.60;;;24.58;;
22849;SDS011;11591;44.792;10.358;2023-03-14T08:02:15;42.80;;;23.77;;
22849;SDS011;11591;44.792;10.358;2023-03-14T08:04:43;48.75;;;24.33;;
22849;SDS011;11591;44.792;10.358;2023-03-14T08:07:09;40.65;;;23.10;;
22849;SDS011;11591;44.792;10.358;2023-03-14T08:09:35;44.22;;;23.20;;
22849;SDS011;11591;44.792;10.358;2023-03-14T08:12:01;51.33;;;23.60;;
22849;SDS011;11591;44.792;10.358;2023-03-14T08:14:27;43.08;;;23.38;;
22849;SDS011;11591;44.792;10.358;2023-03-14T08:16:54;37.45;;;21.30;;
22849;SDS011;11591;44.792;10.358;2023-03-14T08:19:20;39.03;;;22.35;;
22849;SDS011;11591;44.792;10.358;2023-03-14T08:21:46;43.08;;;23.10;;
22849;SDS011;11591;44.792;10.358;2023-03-14T08:24:12;43.33;;;22.63;;
22849;SDS011;11591;44.792;10.358;2023-03-14T08:26:42;38.75;;;22.73;;
22849;SDS011;11591;44.792;10.358;2023-03-14T08:29:09;42.28;;;22.38;;
22849;SDS011;11591;44.792;10.358;2023-03-14T08:31:35;37.83;;;20.70;;
22849;SDS011;11591;44.792;10.358;2023-03-14T08:34:01;39.13;;;21.70;;
22849;SDS011;11591;44.792;10.358;2023-03-14T08:36:27;39.60;;;21.17;;
22849;SDS011;11591;44.792;10.358;2023-03-14T08:38:53;35.28;;;20.52;;
22849;SDS011;11591;44.792;10.358;2023-03-14T08:41:19;33.78;;;19.65;;
22849;SDS011;11591;44.792;10.358;2023-03-14T08:43:45;30.75;;;18.10;;
22849;SDS011;11591;44.792;10.358;2023-03-14T08:46:11;31.42;;;16.63;;
22849;SDS011;11591;44.792;10.358;2023-03-14T08:48:37;32.13;;;18.38;;
22849;SDS011;11591;44.792;10.358;2023-03-14T08:53:32;32.90;;;17.75;;
22849;SDS011;11591;44.792;10.358;2023-03-14T08:55:58;30.02;;;17.00;;
22849;SDS011;11591;44.792;10.358;2023-03-14T08:58:24;29.65;;;16.27;;
22849;SDS011;11591;44.792;10.358;2023-03-14T09:00:50;30.55;;;16.58;;
22849;SDS011;11591;44.792;10.358;2023-03-14T09:03:16;28.55;;;15.13;;
22849;SDS011;11591;44.792;10.358;2023-03-14T09:05:42;24.65;;;15.30;;
22849;SDS011;11591;44.792;10.358;2023-03-14T09:08:08;26.08;;;15.52;;
22849;SDS011;11591;44.792;10.358;2023-03-14T09:10:34;25.75;;;15.10;;
22849;SDS011;11591;44.792;10.358;2023-03-14T09:12:59;30.38;;;16.63;;
22849;SDS011;11591;44.792;10.358;2023-03-14T09:15:25;29.67;;;17.05;;
22849;SDS011;11591;44.792;10.358;2023-03-14T09:17:51;28.70;;;15.10;;
22849;SDS011;11591;44.792;10.358;2023-03-14T09:20:17;25.92;;;14.88;;
22849;SDS011;11591;44.792;10.358;2023-03-14T09:22:43;28.60;;;15.00;;
22849;SDS011;11591;44.792;10.358;2023-03-14T09:25:09;27.63;;;14.85;;
22849;SDS011;11591;44.792;10.358;2023-03-14T09:27:35;27.52;;;15.88;;
22849;SDS011;11591;44.792;10.358;2023-03-14T09:30:02;28.75;;;15.00;;
22849;SDS011;11591;44.792;10.358;2023-03-14T09:32:29;31.35;;;16.63;;
22849;SDS011;11591;44.792;10.358;2023-03-14T09:34:56;25.17;;;14.80;;
22849;SDS011;11591;44.792;10.358;2023-03-14T09:37:22;30.17;;;16.30;;
22849;SDS011;11591;44.792;10.358;2023-03-14T09:39:48;25.85;;;15.27;;
22849;SDS011;11591;44.792;10.358;2023-03-14T09:42:15;26.10;;;15.60;;
22849;SDS011;11591;44.792;10.358;2023-03-14T09:44:51;28.40;;;15.18;;
22849;SDS011;11591;44.792;10.358;2023-03-14T09:47:23;27.80;;;15.80;;
22849;SDS011;11591;44.792;10.358;2023-03-14T09:49:51;32.55;;;16.02;;
22849;SDS011;11591;44.792;10.358;2023-03-14T09:52:36;26.65;;;14.50;;
22849;SDS011;11591;44.792;10.358;2023-03-14T09:55:16;28.02;;;14.75;;
22849;SDS011;11591;44.792;10.358;2023-03-14T09:57:47;21.55;;;12.18;;
22849;SDS011;11591;44.792;10.358;2023-03-14T10:02:53;24.17;;;12.50;;
22849;SDS011;11591;44.792;10.358;2023-03-14T10:05:22;20.13;;;10.48;;
22849;SDS011;11591;44.792;10.358;2023-03-14T10:07:49;26.73;;;11.98;;
22849;SDS011;11591;44.792;10.358;2023-03-14T10:10:17;22.67;;;11.75;;
22849;SDS011;11591;44.792;10.358;2023-03-14T10:12:46;19.98;;;12.18;;
22849;SDS011;11591;44.792;10.358;2023-03-14T10:15:14;22.63;;;12.35;;
22849;SDS011;11591;44.792;10.358;2023-03-14T10:17:48;25.85;;;13.70;;
22849;SDS011;11591;44.792;10.358;2023-03-14T10:22:59;23.40;;;13.38;;
22849;SDS011;11591;44.792;10.358;2023-03-14T10:25:34;20.35;;;12.38;;
22849;SDS011;11591;44.792;10.358;2023-03-14T10:28:01;25.25;;;12.55;;
22849;SDS011;11591;44.792;10.358;2023-03-14T10:33:30;18.92;;;11.13;;
22849;SDS011;11591;44.792;10.358;2023-03-14T10:35:58;18.35;;;9.43;;
22849;SDS011;11591;44.792;10.358;2023-03-14T10:38:29;19.95;;;9.07;;
22849;SDS011;11591;44.792;10.358;2023-03-14T10:40:59;20.55;;;9.75;;
22849;SDS011;11591;44.792;10.358;2023-03-14T10:43:27;20.63;;;9.55;;
22849;SDS011;11591;44.792;10.358;2023-03-14T10:45:58;19.85;;;9.48;;
22849;SDS011;11591;44.792;10.358;2023-03-14T10:48:53;19.88;;;9.95;;
22849;SDS011;11591;44.792;10.358;2023-03-14T10:51:22;18.15;;;9.90;;
22849;SDS011;11591;44.792;10.358;2023-03-14T10:53:55;15.77;;;9.35;;
22849;SDS011;11591;44.792;10.358;2023-03-14T10:56:26;18.23;;;10.15;;
22849;SDS011;11591;44.792;10.358;2023-03-14T10:58:56;15.98;;;10.00;;
22849;SDS011;11591;44.792;10.358;2023-03-14T11:01:29;17.20;;;9.07;;
22849;SDS011;11591;44.792;10.358;2023-03-14T11:04:01;22.30;;;13.30;;
22849;SDS011;11591;44.792;10.358;2023-03-14T11:06:44;15.43;;;9.10;;
22849;SDS011;11591;44.792;10.358;2023-03-14T11:09:49;13.52;;;8.30;;
22849;SDS011;11591;44.792;10.358;2023-03-14T11:12:51;18.02;;;9.15;;
22849;SDS011;11591;44.792;10.358;2023-03-14T11:15:15;19.48;;;10.02;;
22849;SDS011;11591;44.792;10.358;2023-03-14T11:17:55;15.98;;;8.93;;
22849;SDS011;11591;44.792;10.358;2023-03-14T11:20:38;19.42;;;9.73;;
22849;SDS011;11591;44.792;10.358;2023-03-14T11:29:08;15.23;;;9.00;;
22849;SDS011;11591;44.792;10.358;2023-03-14T11:32:14;16.15;;;8.82;;
22849;SDS011;11591;44.792;10.358;2023-03-14T11:34:53;17.10;;;9.30;;
22849;SDS011;11591;44.792;10.358;2023-03-14T11:37:27;15.93;;;8.57;;
22849;SDS011;11591;44.792;10.358;2023-03-14T11:40:11;12.77;;;8.63;;
22849;SDS011;11591;44.792;10.358;2023-03-14T11:42:46;15.32;;;9.07;;
22849;SDS011;11591;44.792;10.358;2023-03-14T11:45:20;16.95;;;9.25;;
22849;SDS011;11591;44.792;10.358;2023-03-14T11:48:03;15.77;;;8.93;;
22849;SDS011;11591;44.792;10.358;2023-03-14T11:50:32;17.33;;;9.05;;
22849;SDS011;11591;44.792;10.358;2023-03-14T11:53:08;15.20;;;9.13;;
22849;SDS011;11591;44.792;10.358;2023-03-14T11:55:40;14.45;;;8.57;;
22849;SDS011;11591;44.792;10.358;2023-03-14T11:58:27;16.98;;;9.32;;
22849;SDS011;11591;44.792;10.358;2023-03-14T12:01:00;17.00;;;9.00;;
22849;SDS011;11591;44.792;10.358;2023-03-14T12:08:42;14.90;;;8.90;;
22849;SDS011;11591;44.792;10.358;2023-03-14T12:11:13;17.58;;;8.52;;
22849;SDS011;11591;44.792;10.358;2023-03-14T12:13:39;15.18;;;8.52;;
22849;SDS011;11591;44.792;10.358;2023-03-14T12:16:06;16.88;;;9.98;;
22849;SDS011;11591;44.792;10.358;2023-03-14T12:18:51;17.90;;;9.48;;
22849;SDS011;11591;44.792;10.358;2023-03-14T12:21:18;17.20;;;10.00;;
22849;SDS011;11591;44.792;10.358;2023-03-14T12:23:52;14.52;;;9.02;;
22849;SDS011;11591;44.792;10.358;2023-03-14T12:26:20;14.68;;;8.63;;
22849;SDS011;11591;44.792;10.358;2023-03-14T12:39:33;14.27;;;8.93;;
22849;SDS011;11591;44.792;10.358;2023-03-14T12:42:08;16.35;;;9.40;;
22849;SDS011;11591;44.792;10.358;2023-03-14T12:44:49;15.98;;;8.90;;
22849;SDS011;11591;44.792;10.358;2023-03-14T12:49:45;14.50;;;8.05;;
22849;SDS011;11591;44.792;10.358;2023-03-14T12:52:19;12.65;;;7.75;;
22849;SDS011;11591;44.792;10.358;2023-03-14T13:00:20;13.63;;;8.38;;
22849;SDS011;11591;44.792;10.358;2023-03-14T13:02:47;11.93;;;7.22;;
22849;SDS011;11591;44.792;10.358;2023-03-14T13:13:02;11.85;;;7.20;;
22849;SDS011;11591;44.792;10.358;2023-03-14T13:15:46;10.63;;;6.70;;
22849;SDS011;11591;44.792;10.358;2023-03-14T13:18:17;12.55;;;7.85;;
22849;SDS011;11591;44.792;10.358;2023-03-14T13:20:59;12.13;;;7.25;;
22849;SDS011;11591;44.792;10.358;2023-03-14T13:23:30;16.52;;;7.95;;
22849;SDS011;11591;44.792;10.358;2023-03-14T13:25:58;12.57;;;7.93;;
22849;SDS011;11591;44.792;10.358;2023-03-14T13:28:25;12.50;;;7.88;;
22849;SDS011;11591;44.792;10.358;2023-03-14T13:30:59;13.60;;;7.60;;
22849;SDS011;11591;44.792;10.358;2023-03-14T13:33:26;9.93;;;6.68;;
22849;SDS011;11591;44.792;10.358;2023-03-14T13:35:57;9.70;;;6.88;;
22849;SDS011;11591;44.792;10.358;2023-03-14T13:38:28;9.70;;;6.50;;
22849;SDS011;11591;44.792;10.358;2023-03-14T13:40:56;9.10;;;6.60;;
22849;SDS011;11591;44.792;10.358;2023-03-14T13:43:30;10.13;;;6.63;;
22849;SDS011;11591;44.792;10.358;2023-03-14T13:48:32;9.10;;;6.38;;
22849;SDS011;11591;44.792;10.358;2023-03-14T13:51:07;8.55;;;5.95;;
22849;SDS011;11591;44.792;10.358;2023-03-14T13:53:45;11.10;;;6.38;;
22849;SDS011;11591;44.792;10.358;2023-03-14T13:56:19;9.45;;;6.47;;
22849;SDS011;11591;44.792;10.358;2023-03-14T13:58:47;9.10;;;6.25;;
22849;SDS011;11591;44.792;10.358;2023-03-14T14:03:51;8.73;;;5.82;;
22849;SDS011;11591;44.792;10.358;2023-03-14T14:09:00;9.68;;;6.05;;
22849;SDS011;11591;44.792;10.358;2023-03-14T14:11:54;8.55;;;5.72;;
22849;SDS011;11591;44.792;10.358;2023-03-14T14:14:28;9.60;;;6.00;;
22849;SDS011;11591;44.792;10.358;2023-03-14T14:17:14;8.55;;;5.85;;
22849;SDS011;11591;44.792;10.358;2023-03-14T14:19:49;8.18;;;6.15;;
22849;SDS011;11591;44.792;10.358;2023-03-14T14:22:17;10.23;;;6.53;;
22849;SDS011;11591;44.792;10.358;2023-03-14T14:24:43;9.55;;;7.05;;
22849;SDS011;11591;44.792;10.358;2023-03-14T14:27:16;11.80;;;6.95;;
22849;SDS011;11591;44.792;10.358;2023-03-14T14:30:00;11.85;;;6.22;;
22849;SDS011;11591;44.792;10.358;2023-03-14T14:32:34;10.77;;;6.43;;
22849;SDS011;11591;44.792;10.358;2023-03-14T14:35:01;10.93;;;7.05;;
22849;SDS011;11591;44.792;10.358;2023-03-14T14:37:32;11.48;;;7.35;;
22849;SDS011;11591;44.792;10.358;2023-03-14T14:42:45;10.77;;;6.88;;
22849;SDS011;11591;44.792;10.358;2023-03-14T14:45:22;15.05;;;7.13;;
22849;SDS011;11591;44.792;10.358;2023-03-14T14:47:50;14.18;;;7.70;;
22849;SDS011;11591;44.792;10.358;2023-03-14T14:52:58;12.68;;;7.80;;
22849;SDS011;11591;44.792;10.358;2023-03-14T14:55:38;13.05;;;7.55;;
22849;SDS011;11591;44.792;10.358;2023-03-14T14:58:16;13.35;;;7.43;;
22849;SDS011;11591;44.792;10.358;2023-03-14T15:00:49;21.35;;;8.05;;
22849;SDS011;11591;44.792;10.358;2023-03-14T15:03:18;17.27;;;7.13;;
22849;SDS011;11591;44.792;10.358;2023-03-14T15:05:44;14.43;;;7.90;;
22849;SDS011;11591;44.792;10.358;2023-03-14T15:08:29;20.30;;;8.55;;
22849;SDS011;11591;44.792;10.358;2023-03-14T15:10:57;13.52;;;7.88;;
22849;SDS011;11591;44.792;10.358;2023-03-14T15:13:23;13.07;;;7.75;;
22849;SDS011;11591;44.792;10.358;2023-03-14T15:15:49;12.07;;;7.65;;
22849;SDS011;11591;44.792;10.358;2023-03-14T15:18:23;13.40;;;7.80;;
22849;SDS011;11591;44.792;10.358;2023-03-14T15:20:50;16.13;;;8.15;;
22849;SDS011;11591;44.792;10.358;2023-03-14T15:23:17;10.75;;;6.95;;
22849;SDS011;11591;44.792;10.358;2023-03-14T15:25:44;11.88;;;6.40;;
22849;SDS011;11591;44.792;10.358;2023-03-14T15:28:16;11.75;;;6.32;;
22849;SDS011;11591;44.792;10.358;2023-03-14T15:30:45;10.48;;;6.75;;
22849;SDS011;11591;44.792;10.358;2023-03-14T15:33:14;10.98;;;7.10;;
22849;SDS011;11591;44.792;10.358;2023-03-14T15:35:40;10.07;;;7.63;;
22849;SDS011;11591;44.792;10.358;2023-03-14T15:38:10;11.82;;;7.60;;
22849;SDS011;11591;44.792;10.358;2023-03-14T15:40:38;20.15;;;12.70;;
22849;SDS011;11591;44.792;10.358;2023-03-14T15:43:04;13.32;;;8.48;;
22849;SDS011;11591;44.792;10.358;2023-03-14T15:45:30;15.20;;;7.97;;
22849;SDS011;11591;44.792;10.358;2023-03-14T15:47:56;13.18;;;8.25;;